createdAt,value
2023-05-22T00:00:52.804Z,5.97
2023-05-22T00:02:24.767Z,6.17
2023-05-22T00:03:57.153Z,7.43
2023-05-22T00:05:32.698Z,6.37
2023-05-22T00:07:04.810Z,7.80
2023-05-22T00:08:37.048Z,10.83
2023-05-22T00:10:09.421Z,10.53
2023-05-22T00:11:41.203Z,7.00
2023-05-22T00:13:12.985Z,7.57
2023-05-22T00:14:44.761Z,7.90
2023-05-22T00:16:16.652Z,7.33
2023-05-22T00:17:51.136Z,11.30
2023-05-22T00:19:23.104Z,9.27
2023-05-22T00:20:55.278Z,8.97
2023-05-22T00:22:28.288Z,8.50
2023-05-22T00:24:04.027Z,11.43
2023-05-22T00:25:36.439Z,9.10
2023-05-22T00:27:08.162Z,15.03
2023-05-22T00:28:39.945Z,11.40
2023-05-22T00:30:12.309Z,11.00
2023-05-22T00:31:44.170Z,12.33
2023-05-22T00:33:16.116Z,8.90
2023-05-22T00:34:47.931Z,9.23
2023-05-22T00:36:19.828Z,11.57
2023-05-22T00:37:52.921Z,9.47
2023-05-22T00:39:25.529Z,11.20
2023-05-22T00:40:57.677Z,10.87
2023-05-22T00:42:29.416Z,11.20
2023-05-22T00:44:02.618Z,9.90
2023-05-22T00:45:34.432Z,12.13
2023-05-22T00:47:06.260Z,9.50
2023-05-22T00:48:38.181Z,9.47
2023-05-22T00:50:11.589Z,11.30
2023-05-22T00:51:44.104Z,9.50
2023-05-22T00:53:16.791Z,12.10
2023-05-22T00:54:52.760Z,11.83
2023-05-22T00:56:26.920Z,11.23
2023-05-22T00:57:59.010Z,12.93
2023-05-22T00:59:31.732Z,13.50
2023-05-22T01:01:03.666Z,11.60
2023-05-22T01:02:37.127Z,10.63
2023-05-22T01:04:18.618Z,15.67
2023-05-22T01:05:50.432Z,15.70
2023-05-22T01:07:23.781Z,13.50
2023-05-22T01:08:58.230Z,11.97
2023-05-22T01:10:31.791Z,12.37
2023-05-22T01:12:24.268Z,14.50
2023-05-22T01:14:10.720Z,12.67
2023-05-22T01:16:09.125Z,16.80
2023-05-22T01:18:11.003Z,16.83
2023-05-22T01:20:07.284Z,16.37
2023-05-22T01:21:46.290Z,13.30
2023-05-22T01:23:33.633Z,16.77
2023-05-22T01:25:21.027Z,19.33
2023-05-22T01:27:25.936Z,15.33
2023-05-22T01:29:34.728Z,19.57
2023-05-22T01:31:11.198Z,14.67
2023-05-22T01:32:44.823Z,17.57
2023-05-22T01:34:20.419Z,14.80
2023-05-22T01:35:55.628Z,14.33
2023-05-22T01:37:27.926Z,20.70
2023-05-22T01:39:01.476Z,16.50
2023-05-22T01:40:34.290Z,15.47
2023-05-22T01:42:06.327Z,23.27
2023-05-22T01:43:39.580Z,16.27
2023-05-22T01:45:12.173Z,17.70
2023-05-22T01:46:43.953Z,17.40
2023-05-22T01:48:16.140Z,17.63
2023-05-22T01:49:48.111Z,21.13
2023-05-22T01:51:37.787Z,17.77
2023-05-22T01:53:19.824Z,16.10
2023-05-22T01:54:58.263Z,18.40
2023-05-22T01:56:41.413Z,18.30
2023-05-22T01:58:36.194Z,20.03
2023-05-22T02:00:13.911Z,17.97
2023-05-22T02:01:51.463Z,20.00
2023-05-22T02:03:29.880Z,20.40
2023-05-22T02:05:04.422Z,19.97
2023-05-22T02:06:37.912Z,18.40
2023-05-22T02:08:11.487Z,18.40
2023-05-22T02:09:46.881Z,18.47
2023-05-22T02:11:21.558Z,19.60
2023-05-22T02:12:54.367Z,22.50
2023-05-22T02:14:26.497Z,19.20
2023-05-22T02:16:00.296Z,20.00
2023-05-22T02:17:40.202Z,18.00
2023-05-22T02:19:15.210Z,25.87
2023-05-22T02:20:47.199Z,17.07
2023-05-22T02:22:19.054Z,20.20
2023-05-22T02:23:51.064Z,19.37
2023-05-22T02:25:23.333Z,21.33
2023-05-22T02:26:55.321Z,17.23
2023-05-22T02:28:27.396Z,19.20
2023-05-22T02:29:59.119Z,19.83
2023-05-22T02:31:30.982Z,17.10
2023-05-22T02:33:05.849Z,19.03
2023-05-22T02:34:37.936Z,18.90
2023-05-22T02:36:11.121Z,20.00
2023-05-22T02:37:43.077Z,17.70
2023-05-22T02:39:15.152Z,21.10
2023-05-22T02:40:47.416Z,20.83
2023-05-22T02:42:19.634Z,20.20
2023-05-22T02:43:51.461Z,20.73
2023-05-22T02:45:23.443Z,20.40
2023-05-22T02:46:56.085Z,19.73
2023-05-22T02:48:29.176Z,23.73
2023-05-22T02:50:01.047Z,21.70
2023-05-22T02:51:32.791Z,19.90
2023-05-22T02:53:04.536Z,21.37
2023-05-22T02:54:36.300Z,26.13
2023-05-22T02:56:10.548Z,22.03
2023-05-22T02:57:43.254Z,20.30
2023-05-22T02:59:15.106Z,21.10
2023-05-22T03:00:46.965Z,21.13
2023-05-22T03:02:19.792Z,19.63
2023-05-22T03:03:54.959Z,24.87
2023-05-22T03:05:26.985Z,22.87
2023-05-22T03:06:59.047Z,21.20
2023-05-22T03:08:31.646Z,24.10
2023-05-22T03:10:03.675Z,21.80
2023-05-22T03:11:35.444Z,24.63
2023-05-22T03:13:07.260Z,22.20
2023-05-22T03:14:39.111Z,26.50
2023-05-22T03:16:11.006Z,21.73
2023-05-22T03:17:47.776Z,23.50
2023-05-22T03:19:20.437Z,22.47
2023-05-22T03:20:52.404Z,23.30
2023-05-22T03:22:24.198Z,24.30
2023-05-22T03:23:56.053Z,25.83
2023-05-22T03:25:28.025Z,29.43
2023-05-22T03:27:00.646Z,29.07
2023-05-22T03:28:40.977Z,31.30
2023-05-22T03:30:13.338Z,27.23
2023-05-22T03:31:49.304Z,25.07
2023-05-22T03:33:21.285Z,26.40
2023-05-22T03:34:54.133Z,28.00
2023-05-22T03:36:26.047Z,25.23
2023-05-22T03:37:57.928Z,29.90
2023-05-22T03:39:29.697Z,26.20
2023-05-22T03:41:06.036Z,31.27
2023-05-22T03:42:37.995Z,28.93
2023-05-22T03:44:09.932Z,25.40
2023-05-22T03:45:41.668Z,23.50
2023-05-22T03:47:16.486Z,25.80
2023-05-22T03:48:48.266Z,29.13
2023-05-22T03:50:20.126Z,28.00
2023-05-22T03:51:51.991Z,26.57
2023-05-22T03:53:23.984Z,27.07
2023-05-22T03:54:55.775Z,28.50
2023-05-22T03:56:27.514Z,31.17
2023-05-22T03:57:59.252Z,29.40
2023-05-22T03:59:31.067Z,30.60
2023-05-22T04:01:03.118Z,31.57
2023-05-22T04:02:35.674Z,31.80
2023-05-22T04:04:09.479Z,29.60
2023-05-22T04:05:41.984Z,32.93
2023-05-22T04:07:18.215Z,29.80
2023-05-22T04:08:49.932Z,28.50
2023-05-22T04:10:23.503Z,27.90
2023-05-22T04:11:55.914Z,31.13
2023-05-22T04:13:27.773Z,32.20
2023-05-22T04:14:59.627Z,32.60
2023-05-22T04:16:31.994Z,35.57
2023-05-22T04:18:03.975Z,36.83
2023-05-22T04:19:36.224Z,32.80
2023-05-22T04:21:09.652Z,36.37
2023-05-22T04:22:41.700Z,35.97
2023-05-22T04:24:14.609Z,34.67
2023-05-22T04:25:48.025Z,30.87
2023-05-22T04:27:22.486Z,40.33
2023-05-22T04:28:54.476Z,38.17
2023-05-22T04:30:26.560Z,32.53
2023-05-22T04:32:00.177Z,56.13
2023-05-22T04:33:34.277Z,32.93
2023-05-22T04:35:06.314Z,32.10
2023-05-22T04:36:38.818Z,30.00
2023-05-22T04:38:11.779Z,31.53
2023-05-22T04:39:44.204Z,31.97
2023-05-22T04:41:18.370Z,36.20
2023-05-22T04:42:54.159Z,36.20
2023-05-22T04:44:26.007Z,32.37
2023-05-22T04:45:57.766Z,35.17
2023-05-22T04:47:31.514Z,34.73
2023-05-22T04:49:04.566Z,36.73
2023-05-22T04:50:39.568Z,31.87
2023-05-22T04:52:12.074Z,40.47
2023-05-22T04:53:43.900Z,34.10
2023-05-22T04:55:16.744Z,33.50
2023-05-22T04:56:48.442Z,41.17
2023-05-22T04:58:20.596Z,34.03
2023-05-22T04:59:53.511Z,34.70
2023-05-22T05:01:28.346Z,32.03
2023-05-22T05:03:01.519Z,37.73
2023-05-22T05:04:34.273Z,37.83
2023-05-22T05:06:08.243Z,31.93
2023-05-22T05:07:40.297Z,39.43
2023-05-22T05:09:12.695Z,39.37
2023-05-22T05:10:44.484Z,34.10
2023-05-22T05:12:17.081Z,38.97
2023-05-22T05:13:48.791Z,39.20
2023-05-22T05:15:22.666Z,38.07
2023-05-22T05:16:54.844Z,42.00
2023-05-22T05:18:28.048Z,40.37
2023-05-22T05:20:00.299Z,42.47
2023-05-22T05:21:32.078Z,37.23
2023-05-22T05:23:05.673Z,41.07
2023-05-22T05:24:37.432Z,38.17
2023-05-22T05:26:09.413Z,42.90
2023-05-22T05:27:41.327Z,57.13
2023-05-22T05:29:14.129Z,42.80
2023-05-22T05:30:52.996Z,41.37
2023-05-22T05:32:47.488Z,40.30
2023-05-22T05:34:31.322Z,39.50
2023-05-22T05:36:07.509Z,44.30
2023-05-22T05:37:41.592Z,41.63
2023-05-22T05:39:13.555Z,39.00
2023-05-22T05:40:46.049Z,46.00
2023-05-22T05:42:18.098Z,52.30
2023-05-22T05:43:53.846Z,42.10
2023-05-22T05:45:26.229Z,43.40
2023-05-22T05:46:58.504Z,48.47
2023-05-22T05:48:31.474Z,51.17
2023-05-22T05:50:04.314Z,48.43
2023-05-22T05:51:38.669Z,49.33
2023-05-22T05:53:11.568Z,57.73
2023-05-22T05:54:47.481Z,50.10
2023-05-22T05:56:21.539Z,46.37
2023-05-22T05:57:54.420Z,56.00
2023-05-22T05:59:33.244Z,51.30
2023-05-22T06:01:26.128Z,57.73
2023-05-22T06:02:59.390Z,49.43
2023-05-22T06:04:51.448Z,47.00
2023-05-22T06:06:26.141Z,46.43
2023-05-22T06:08:10.187Z,44.77
2023-05-22T06:09:42.185Z,46.10
2023-05-22T06:11:13.909Z,47.70
2023-05-22T06:12:55.706Z,43.00
2023-05-22T06:14:27.492Z,42.07
2023-05-22T06:16:01.821Z,41.20
2023-05-22T06:17:37.393Z,42.40
2023-05-22T06:19:09.325Z,46.23
2023-05-22T06:20:41.584Z,38.70
2023-05-22T06:22:13.580Z,38.73
2023-05-22T06:23:48.560Z,44.23
2023-05-22T06:25:20.890Z,35.13
2023-05-22T06:26:53.792Z,43.57
2023-05-22T06:28:25.727Z,39.13
2023-05-22T06:29:57.857Z,36.17
2023-05-22T06:31:35.378Z,36.40
2023-05-22T06:33:08.858Z,43.83
2023-05-22T06:34:40.848Z,37.70
2023-05-22T06:36:13.598Z,39.10
2023-05-22T06:37:45.408Z,38.50
2023-05-22T06:39:18.407Z,44.43
2023-05-22T06:41:16.088Z,40.90
2023-05-22T06:42:47.981Z,43.80
2023-05-22T06:44:44.028Z,42.37
2023-05-22T06:46:16.278Z,43.83
2023-05-22T06:47:56.425Z,45.33
2023-05-22T06:49:28.302Z,47.13
2023-05-22T06:51:00.922Z,43.70
2023-05-22T06:52:33.731Z,41.37
2023-05-22T06:54:08.030Z,39.90
2023-05-22T06:55:41.910Z,45.33
2023-05-22T06:57:18.738Z,55.17
2023-05-22T06:58:50.741Z,49.43
2023-05-22T07:00:24.154Z,45.03
2023-05-22T07:02:05.744Z,46.67
2023-05-22T07:03:58.036Z,43.67
2023-05-22T07:05:41.684Z,43.10
2023-05-22T07:07:13.464Z,38.70
2023-05-22T07:08:45.213Z,45.67
2023-05-22T07:10:17.008Z,41.57
2023-05-22T07:11:48.999Z,49.23
2023-05-22T07:13:21.734Z,45.83
2023-05-22T07:14:54.244Z,47.77
2023-05-22T07:16:29.856Z,42.30
2023-05-22T07:18:01.852Z,44.73
2023-05-22T07:19:35.606Z,43.03
2023-05-22T07:21:09.221Z,44.53
2023-05-22T07:22:40.955Z,47.00
2023-05-22T07:24:12.707Z,43.07
2023-05-22T07:25:46.261Z,46.50
2023-05-22T07:27:20.228Z,44.80
2023-05-22T07:28:54.008Z,47.97
2023-05-22T07:30:25.768Z,45.97
2023-05-22T07:31:57.696Z,42.60
2023-05-22T07:33:31.051Z,40.00
2023-05-22T07:35:03.031Z,42.83
2023-05-22T07:36:35.565Z,48.37
2023-05-22T07:38:08.103Z,43.33
2023-05-22T07:39:40.784Z,44.30
2023-05-22T07:41:12.954Z,48.67
2023-05-22T07:42:44.729Z,47.80
2023-05-22T07:44:18.178Z,47.10
2023-05-22T07:45:53.958Z,45.40
2023-05-22T07:47:29.143Z,38.17
2023-05-22T07:49:01.351Z,44.40
2023-05-22T07:50:33.571Z,42.40
2023-05-22T07:52:05.781Z,52.90
2023-05-22T07:53:37.638Z,42.23
2023-05-22T07:55:10.321Z,41.20
2023-05-22T07:56:45.640Z,43.40
2023-05-22T07:58:18.034Z,45.70
2023-05-22T07:59:51.213Z,42.43
2023-05-22T08:01:24.086Z,51.67
2023-05-22T08:02:56.498Z,48.70
2023-05-22T08:04:30.114Z,56.73
2023-05-22T08:06:03.551Z,38.93
2023-05-22T08:07:36.205Z,51.40
2023-05-22T08:09:08.403Z,48.57
2023-05-22T08:12:15.147Z,44.40
2023-05-22T08:13:47.312Z,39.43
2023-05-22T08:15:19.241Z,39.70
2023-05-22T08:16:51.150Z,36.17
2023-05-22T08:18:22.962Z,37.07
2023-05-22T08:19:54.761Z,40.77
2023-05-22T08:21:26.636Z,39.30
2023-05-22T08:22:59.175Z,40.13
2023-05-22T08:24:31.332Z,41.43
2023-05-22T08:26:03.281Z,43.67
2023-05-22T08:27:35.108Z,41.83
2023-05-22T08:29:07.003Z,42.93
2023-05-22T08:30:38.969Z,45.07
2023-05-22T08:32:10.817Z,47.20
2023-05-22T08:33:42.603Z,49.40
2023-05-22T08:35:14.479Z,44.10
2023-05-22T08:36:46.305Z,48.47
2023-05-22T08:38:18.192Z,57.27
2023-05-22T08:39:49.914Z,43.17
2023-05-22T08:41:21.958Z,55.00
2023-05-22T08:42:54.915Z,47.87
2023-05-22T08:44:26.796Z,47.73
2023-05-22T08:46:08.540Z,55.23
2023-05-22T08:47:44.023Z,49.10
2023-05-22T08:49:17.121Z,46.47
2023-05-22T08:50:57.474Z,52.30
2023-05-22T08:52:47.946Z,49.83
2023-05-22T08:54:23.069Z,52.67
2023-05-22T08:55:55.296Z,50.23
2023-05-22T08:57:27.125Z,55.07
2023-05-22T08:59:00.094Z,48.90
2023-05-22T09:00:32.544Z,52.50
2023-05-22T09:02:06.776Z,51.17
2023-05-22T09:03:39.209Z,47.20
2023-05-22T09:05:12.218Z,46.57
2023-05-22T09:06:47.298Z,50.43
2023-05-22T09:08:20.871Z,54.30
2023-05-22T09:09:53.129Z,54.60
2023-05-22T09:11:26.125Z,47.73
2023-05-22T09:13:09.222Z,53.33
2023-05-22T09:14:44.552Z,50.10
2023-05-22T09:16:16.295Z,53.37
2023-05-22T09:17:48.019Z,60.43
2023-05-22T09:19:19.899Z,56.43
2023-05-22T09:20:51.815Z,55.23
2023-05-22T09:22:24.480Z,53.77
2023-05-22T09:24:01.115Z,57.67
2023-05-22T09:25:32.974Z,48.40
2023-05-22T09:27:07.021Z,52.53
2023-05-22T09:28:38.734Z,49.87
2023-05-22T09:30:10.969Z,50.03
2023-05-22T09:31:44.015Z,45.97
2023-05-22T09:33:18.069Z,51.03
2023-05-22T09:34:50.582Z,53.57
2023-05-22T09:36:22.940Z,63.90
2023-05-22T09:37:56.042Z,51.10
2023-05-22T09:39:43.220Z,52.07
2023-05-22T09:41:22.276Z,60.53
2023-05-22T09:42:54.033Z,56.73
2023-05-22T09:44:26.920Z,59.77
2023-05-22T09:46:02.349Z,54.13
2023-05-22T09:47:35.711Z,60.27
2023-05-22T09:49:07.497Z,56.50
2023-05-22T09:50:42.783Z,60.00
2023-05-22T09:52:16.404Z,57.90
2023-05-22T09:53:49.881Z,57.43
2023-05-22T09:55:26.591Z,51.87
2023-05-22T09:57:00.607Z,59.27
2023-05-22T09:58:35.579Z,57.47
2023-05-22T10:00:11.796Z,54.67
2023-05-22T10:01:45.593Z,49.27
2023-05-22T10:03:22.736Z,63.17
2023-05-22T10:04:54.904Z,54.70
2023-05-22T10:06:28.676Z,59.70
2023-05-22T10:08:10.443Z,53.73
2023-05-22T10:09:43.263Z,49.10
2023-05-22T10:11:15.700Z,54.10
2023-05-22T10:12:57.504Z,49.53
2023-05-22T10:14:30.921Z,46.23
2023-05-22T10:16:04.557Z,44.20
2023-05-22T10:17:37.967Z,49.00
2023-05-22T10:19:11.569Z,47.60
2023-05-22T10:20:44.821Z,42.23
2023-05-22T10:22:20.767Z,48.07
2023-05-22T10:23:53.376Z,45.20
2023-05-22T10:25:26.025Z,46.20
2023-05-22T10:26:59.469Z,48.53
2023-05-22T10:28:41.866Z,45.10
2023-05-22T10:30:37.711Z,53.90
2023-05-22T10:32:41.651Z,46.90
2023-05-22T10:34:48.994Z,49.87
2023-05-22T10:36:34.935Z,49.47
2023-05-22T10:38:25.189Z,61.50
2023-05-22T10:40:05.243Z,47.57
2023-05-22T10:41:37.090Z,50.27
2023-05-22T10:43:09.299Z,50.70
2023-05-22T10:44:41.630Z,55.47
2023-05-22T10:46:13.545Z,55.23
2023-05-22T10:47:45.443Z,46.50
2023-05-22T10:49:24.204Z,59.57
2023-05-22T10:50:57.212Z,46.83
2023-05-22T10:52:29.958Z,54.73
2023-05-22T10:54:02.496Z,45.80
2023-05-22T10:55:56.669Z,52.20
2023-05-22T10:57:35.770Z,52.07
2023-05-22T10:59:10.519Z,48.03
2023-05-22T11:00:42.472Z,54.67
2023-05-22T11:02:22.391Z,58.13
2023-05-22T11:03:59.377Z,48.07
2023-05-22T11:05:31.259Z,55.00
2023-05-22T11:07:05.337Z,56.20
2023-05-22T11:08:38.390Z,53.93
2023-05-22T11:10:10.371Z,63.30
2023-05-22T11:11:42.122Z,55.47
2023-05-22T11:13:14.134Z,57.17
2023-05-22T11:14:59.660Z,55.23
2023-05-22T11:16:34.821Z,52.40
2023-05-22T11:18:06.749Z,60.43
2023-05-22T11:19:41.398Z,57.80
2023-05-22T11:21:13.690Z,57.13
2023-05-22T11:22:57.987Z,55.63
2023-05-22T11:24:36.769Z,63.63
2023-05-22T11:26:22.510Z,54.27
2023-05-22T11:27:56.260Z,55.83
2023-05-22T11:29:29.277Z,62.07
2023-05-22T11:31:01.942Z,60.90
2023-05-22T11:32:36.302Z,61.80
2023-05-22T11:34:08.685Z,61.57
2023-05-22T11:35:41.404Z,64.10
2023-05-22T11:37:13.427Z,64.87
2023-05-22T11:38:45.232Z,59.50
2023-05-22T11:40:19.370Z,65.73
2023-05-22T11:41:51.192Z,64.40
2023-05-22T11:43:33.073Z,72.00
2023-05-22T11:45:05.743Z,60.37
2023-05-22T11:46:39.709Z,62.77
2023-05-22T11:48:13.924Z,64.53
2023-05-22T11:49:47.205Z,58.17
2023-05-22T11:51:22.740Z,64.20
2023-05-22T11:52:56.218Z,66.30
2023-05-22T11:54:32.232Z,72.23
2023-05-22T11:56:05.652Z,67.00
2023-05-22T11:57:38.217Z,67.13
2023-05-22T11:59:12.618Z,63.47
2023-05-22T12:00:44.433Z,66.40
2023-05-22T12:02:16.937Z,69.63
2023-05-22T12:03:48.812Z,64.97
2023-05-22T12:05:21.682Z,63.47
2023-05-22T12:06:54.548Z,65.10
2023-05-22T12:08:26.689Z,65.70
2023-05-22T12:09:58.845Z,71.10
2023-05-22T12:11:35.081Z,68.63
2023-05-22T12:13:07.392Z,62.97
2023-05-22T12:14:39.189Z,66.43
2023-05-22T12:16:23.654Z,63.83
2023-05-22T12:17:56.369Z,64.57
2023-05-22T12:19:28.284Z,70.70
2023-05-22T12:21:00.043Z,57.77
2023-05-22T12:22:31.868Z,67.47
2023-05-22T12:24:04.966Z,63.37
2023-05-22T12:25:39.741Z,66.87
2023-05-22T12:27:12.337Z,71.77
2023-05-22T12:28:44.536Z,76.20
2023-05-22T12:30:16.969Z,66.03
2023-05-22T12:31:48.834Z,75.17
2023-05-22T12:33:25.174Z,70.80
2023-05-22T12:34:58.775Z,68.60
2023-05-22T12:36:44.220Z,76.10
2023-05-22T12:38:16.031Z,70.33
2023-05-22T12:39:55.602Z,72.97
2023-05-22T12:41:27.329Z,67.17
2023-05-22T12:42:59.227Z,72.67
2023-05-22T12:44:30.988Z,64.37
2023-05-22T12:46:03.151Z,69.80
2023-05-22T12:47:34.956Z,66.40
2023-05-22T12:49:06.869Z,81.50
2023-05-22T12:50:38.893Z,71.10
2023-05-22T12:52:10.787Z,75.30
2023-05-22T12:53:42.499Z,76.50
2023-05-22T12:55:14.420Z,71.10
2023-05-22T12:56:46.112Z,74.17
2023-05-22T12:58:17.836Z,78.03
2023-05-22T12:59:49.534Z,78.40
2023-05-22T13:01:22.478Z,72.47
2023-05-22T13:02:54.578Z,79.70
2023-05-22T13:04:26.498Z,77.77
2023-05-22T13:06:01.127Z,79.20
2023-05-22T13:07:33.334Z,67.43
2023-05-22T13:09:05.154Z,65.73
2023-05-22T13:10:38.362Z,75.70
2023-05-22T13:12:11.204Z,77.73
2023-05-22T13:13:43.055Z,76.07
2023-05-22T13:15:15.956Z,83.80
2023-05-22T13:16:47.671Z,79.90
2023-05-22T13:18:19.480Z,76.13
2023-05-22T13:19:51.469Z,71.50
2023-05-22T13:21:25.203Z,71.80
2023-05-22T13:22:58.263Z,80.73
2023-05-22T13:24:30.142Z,79.50
2023-05-22T13:26:02.976Z,80.23
2023-05-22T13:27:34.696Z,77.17
2023-05-22T13:29:06.514Z,73.33
2023-05-22T13:30:38.370Z,81.17
2023-05-22T13:32:13.070Z,71.70
2023-05-22T13:33:44.831Z,77.20
2023-05-22T13:35:16.702Z,76.63
2023-05-22T13:36:48.526Z,83.97
2023-05-22T13:38:20.806Z,79.67
2023-05-22T13:39:54.737Z,78.43
2023-05-22T13:41:26.711Z,81.07
2023-05-22T13:42:58.659Z,76.13
2023-05-22T13:44:30.443Z,78.97
2023-05-22T13:46:02.142Z,78.70
2023-05-22T13:47:34.668Z,80.33
2023-05-22T13:49:06.438Z,79.40
2023-05-22T13:50:38.300Z,79.10
2023-05-22T13:52:10.051Z,80.40
2023-05-22T13:53:41.806Z,82.33
2023-05-22T13:55:13.637Z,79.77
2023-05-22T13:56:45.694Z,78.63
2023-05-22T13:58:17.490Z,76.40
2023-05-22T13:59:49.318Z,78.27
2023-05-22T14:01:21.126Z,77.23
2023-05-22T14:02:52.972Z,74.23
2023-05-22T14:04:24.956Z,75.43
2023-05-22T14:05:56.718Z,77.27
2023-05-22T14:07:31.214Z,80.93
2023-05-22T14:09:05.965Z,75.33
2023-05-22T14:10:38.551Z,69.17
2023-05-22T14:12:10.312Z,70.30
2023-05-22T14:13:42.578Z,64.53
2023-05-22T14:15:16.031Z,67.67
2023-05-22T14:16:47.844Z,76.20
2023-05-22T14:18:19.861Z,74.10
2023-05-22T14:19:51.776Z,66.03
2023-05-22T14:21:23.516Z,64.23
2023-05-22T14:22:58.201Z,63.20
2023-05-22T14:24:30.555Z,62.40
2023-05-22T14:26:02.296Z,66.00
2023-05-22T14:27:34.042Z,62.27
2023-05-22T14:29:05.993Z,56.87
2023-05-22T14:30:38.717Z,55.60
2023-05-22T14:32:10.483Z,60.30
2023-05-22T14:33:42.433Z,63.87
2023-05-22T14:35:14.153Z,67.47
2023-05-22T14:36:46.352Z,59.40
2023-05-22T14:38:18.260Z,58.60
2023-05-22T14:39:50.049Z,57.63
2023-05-22T14:41:21.906Z,60.70
2023-05-22T14:42:54.479Z,57.00
2023-05-22T14:44:26.368Z,58.00
2023-05-22T14:45:59.397Z,48.33
2023-05-22T14:47:31.763Z,51.63
2023-05-22T14:49:03.827Z,49.13
2023-05-22T14:50:35.856Z,45.77
2023-05-22T14:52:09.792Z,45.80
2023-05-22T14:53:41.616Z,47.60
2023-05-22T14:55:13.403Z,43.90
2023-05-22T14:56:48.874Z,49.97
2023-05-22T14:58:21.655Z,45.57
2023-05-22T14:59:53.481Z,42.67
2023-05-22T15:01:25.245Z,38.83
2023-05-22T15:02:57.869Z,44.10
2023-05-22T15:04:35.283Z,41.00
2023-05-22T15:06:07.195Z,43.93
2023-05-22T15:07:44.639Z,37.60
2023-05-22T15:09:17.394Z,39.87
2023-05-22T15:10:49.421Z,38.43
2023-05-22T15:12:22.596Z,33.47
2023-05-22T15:13:54.494Z,39.00
2023-05-22T15:15:26.241Z,40.47
2023-05-22T15:17:01.085Z,39.97
2023-05-22T15:18:32.816Z,36.37
2023-05-22T15:20:09.110Z,40.40
2023-05-22T15:21:42.091Z,38.30
2023-05-22T15:23:13.885Z,39.67
2023-05-22T15:24:47.567Z,33.03
2023-05-22T15:26:19.333Z,36.13
2023-05-22T15:27:51.412Z,34.83
2023-05-22T15:29:23.126Z,29.33
2023-05-22T15:30:54.823Z,32.67
2023-05-22T15:32:26.661Z,37.03
2023-05-22T15:33:58.417Z,43.00
2023-05-22T15:35:33.094Z,35.20
2023-05-22T15:37:04.911Z,39.57
2023-05-22T15:38:36.635Z,30.97
2023-05-22T15:40:11.062Z,36.30
2023-05-22T15:41:48.817Z,32.57
2023-05-22T15:43:27.126Z,34.13
2023-05-22T15:45:00.174Z,38.57
2023-05-22T15:46:32.040Z,37.40
2023-05-22T15:48:05.288Z,33.93
2023-05-22T15:49:37.081Z,33.77
2023-05-22T15:51:09.621Z,30.30
2023-05-22T15:52:41.403Z,30.73
2023-05-22T15:54:13.160Z,34.10
2023-05-22T15:55:44.897Z,32.10
2023-05-22T15:57:16.745Z,29.97
2023-05-22T15:58:48.473Z,31.80
2023-05-22T16:00:21.425Z,31.50
2023-05-22T16:01:53.242Z,29.30
2023-05-22T16:03:25.155Z,37.60
2023-05-22T16:04:56.912Z,30.93
2023-05-22T16:06:28.696Z,28.00
2023-05-22T16:08:00.529Z,32.20
2023-05-22T16:09:32.836Z,29.80
2023-05-22T16:11:04.772Z,34.67
2023-05-22T16:12:38.976Z,30.23
2023-05-22T16:14:10.693Z,38.73
2023-05-22T16:15:43.680Z,31.40
2023-05-22T16:17:15.763Z,33.43
2023-05-22T16:18:47.479Z,41.10
2023-05-22T16:20:20.310Z,27.50
2023-05-22T16:21:53.623Z,36.00
2023-05-22T16:23:25.470Z,37.40
2023-05-22T16:24:57.158Z,30.53
2023-05-22T16:26:28.847Z,29.97
2023-05-22T16:28:00.665Z,27.93
2023-05-22T16:29:32.692Z,31.13
2023-05-22T16:31:06.057Z,31.23
2023-05-22T16:32:38.364Z,29.07
2023-05-22T16:34:10.160Z,32.67
2023-05-22T16:35:46.848Z,31.90
2023-05-22T16:37:18.636Z,29.40
2023-05-22T16:38:50.310Z,39.43
2023-05-22T16:40:22.058Z,33.27
2023-05-22T16:41:54.114Z,27.33
2023-05-22T16:43:25.972Z,18.80
2023-05-22T16:44:57.672Z,21.33
2023-05-22T16:46:29.508Z,17.83
2023-05-22T16:48:01.564Z,18.80
2023-05-22T16:49:33.428Z,19.30
2023-05-22T16:51:05.270Z,18.60
2023-05-22T16:52:37.029Z,22.93
2023-05-22T16:54:08.762Z,16.93
2023-05-22T16:55:40.963Z,16.67
2023-05-22T16:57:12.876Z,15.50
2023-05-22T16:58:45.097Z,13.87
2023-05-22T17:00:17.325Z,21.33
2023-05-22T17:01:49.214Z,20.27
2023-05-22T17:03:21.270Z,15.57
2023-05-22T17:04:54.370Z,14.07
2023-05-22T17:06:27.576Z,13.77
2023-05-22T17:07:59.293Z,15.50
2023-05-22T17:09:31.530Z,22.53
2023-05-22T17:11:03.293Z,19.00
2023-05-22T17:12:34.991Z,19.00
2023-05-22T17:14:06.725Z,16.60
2023-05-22T17:15:38.590Z,19.10
2023-05-22T17:17:10.421Z,22.53
2023-05-22T17:18:42.213Z,20.67
2023-05-22T17:20:13.994Z,27.20
2023-05-22T17:21:46.019Z,34.17
2023-05-22T17:23:18.261Z,23.10
2023-05-22T17:24:50.491Z,22.50
2023-05-22T17:26:22.399Z,29.60
2023-05-22T17:27:54.102Z,21.40
2023-05-22T17:29:27.951Z,21.50
2023-05-22T17:31:00.540Z,16.43
2023-05-22T17:32:32.512Z,26.13
2023-05-22T17:34:04.626Z,20.40
2023-05-22T17:35:36.409Z,24.43
2023-05-22T17:37:08.146Z,20.03
2023-05-22T17:38:39.869Z,16.00
2023-05-22T17:40:11.684Z,18.63
2023-05-22T17:41:43.449Z,15.73
2023-05-22T17:43:16.505Z,17.93
2023-05-22T17:44:48.238Z,19.97
2023-05-22T17:46:19.984Z,15.63
2023-05-22T17:47:51.909Z,19.87
2023-05-22T17:49:23.803Z,19.43
2023-05-22T17:50:55.951Z,17.30
2023-05-22T17:52:27.672Z,17.90
2023-05-22T17:53:59.460Z,18.70
2023-05-22T17:55:31.327Z,18.10
2023-05-22T17:57:04.066Z,17.27
2023-05-22T17:58:35.946Z,19.50
2023-05-22T18:00:09.961Z,15.80
2023-05-22T18:01:44.447Z,18.60
2023-05-22T18:03:21.247Z,21.83
2023-05-22T18:04:55.590Z,17.33
2023-05-22T18:06:27.767Z,19.77
2023-05-22T18:08:00.502Z,17.20
2023-05-22T18:09:32.761Z,20.90
2023-05-22T18:11:22.541Z,23.83
2023-05-22T18:12:57.348Z,21.77
2023-05-22T18:14:29.550Z,21.80
2023-05-22T18:16:02.931Z,26.03
2023-05-22T18:17:39.502Z,21.43
2023-05-22T18:19:11.591Z,22.60
2023-05-22T18:20:44.193Z,18.63
2023-05-22T18:22:16.121Z,17.00
2023-05-22T18:23:47.906Z,23.30
2023-05-22T18:25:19.850Z,22.23
2023-05-22T18:26:51.712Z,20.03
2023-05-22T18:28:27.373Z,16.43
2023-05-22T18:29:59.409Z,18.73
2023-05-22T18:31:31.310Z,19.23
2023-05-22T18:33:03.791Z,18.93
2023-05-22T18:34:37.668Z,29.00
2023-05-22T18:36:09.689Z,23.43
2023-05-22T18:37:42.072Z,18.13
2023-05-22T18:39:14.840Z,24.90
2023-05-22T18:40:47.198Z,19.90
2023-05-22T18:42:19.152Z,19.90
2023-05-22T18:43:53.082Z,21.73
2023-05-22T18:45:25.125Z,17.07
2023-05-22T18:46:57.218Z,16.57
2023-05-22T18:48:30.904Z,18.37
2023-05-22T18:50:04.041Z,14.23
2023-05-22T18:51:37.131Z,21.13
2023-05-22T18:53:10.105Z,17.03
2023-05-22T18:54:42.057Z,17.50
2023-05-22T18:56:14.001Z,18.00
2023-05-22T18:57:45.891Z,17.70
2023-05-22T18:59:18.121Z,14.20
2023-05-22T19:00:52.048Z,15.47
2023-05-22T19:02:24.157Z,16.30
2023-05-22T19:03:56.144Z,16.00
2023-05-22T19:05:28.343Z,15.23
2023-05-22T19:07:00.246Z,20.47
2023-05-22T19:08:33.689Z,15.57
2023-05-22T19:10:08.085Z,16.80
2023-05-22T19:11:40.231Z,13.13
2023-05-22T19:13:12.158Z,12.70
2023-05-22T19:14:44.161Z,15.43
2023-05-22T19:16:16.302Z,15.77
2023-05-22T19:17:48.494Z,19.90
2023-05-22T19:19:20.507Z,16.10
2023-05-22T19:20:52.400Z,11.40
2023-05-22T19:22:27.381Z,12.13
2023-05-22T19:25:50.041Z,10.30
2023-05-22T19:27:25.360Z,8.87
2023-05-22T19:28:59.274Z,11.63
2023-05-22T19:30:35.153Z,7.13
2023-05-22T19:32:09.834Z,7.27
2023-05-22T19:33:41.798Z,11.00
2023-05-22T19:35:15.681Z,6.13
2023-05-22T19:36:55.335Z,16.80
2023-05-22T19:38:27.459Z,12.73
2023-05-22T19:39:59.312Z,8.67
2023-05-22T19:41:31.293Z,10.10
2023-05-22T19:43:03.241Z,9.57
2023-05-22T19:44:35.101Z,7.20
2023-05-22T19:46:08.851Z,10.20
2023-05-22T19:47:41.367Z,7.60
2023-05-22T19:49:13.933Z,7.00
2023-05-22T19:50:48.848Z,7.80
2023-05-22T19:52:32.891Z,12.33
2023-05-22T19:54:10.792Z,10.73
2023-05-22T19:55:42.643Z,6.30
2023-05-22T19:57:22.157Z,6.90
2023-05-22T19:58:53.876Z,6.20
2023-05-22T20:00:29.274Z,5.10
2023-05-22T20:02:01.048Z,6.13
2023-05-22T20:03:32.934Z,7.37
2023-05-22T20:05:05.107Z,7.77
2023-05-22T20:06:36.935Z,7.10
2023-05-22T20:08:10.127Z,5.80
2023-05-22T20:09:41.923Z,6.20
2023-05-22T20:11:13.678Z,7.30
2023-05-22T20:12:45.856Z,6.40
2023-05-22T20:14:17.608Z,6.60
2023-05-22T20:15:51.203Z,7.60